sensor_id;sensor_type;location;lat;lon;timestamp;P1;durP1;ratioP1;P2;durP2;ratioP2
20411;SDS011;10365;52.578;8.138;2022-10-31T00:01:14;63.65;;;32.53;;
20411;SDS011;10365;52.578;8.138;2022-10-31T00:03:39;72.53;;;33.63;;
20411;SDS011;10365;52.578;8.138;2022-10-31T00:06:05;61.53;;;31.83;;
20411;SDS011;10365;52.578;8.138;2022-10-31T00:08:30;64.57;;;31.25;;
20411;SDS011;10365;52.578;8.138;2022-10-31T00:10:56;56.72;;;32.42;;
20411;SDS011;10365;52.578;8.138;2022-10-31T00:13:21;57.50;;;33.60;;
20411;SDS011;10365;52.578;8.138;2022-10-31T00:15:46;68.88;;;34.08;;
20411;SDS011;10365;52.578;8.138;2022-10-31T00:18:12;70.13;;;34.10;;
20411;SDS011;10365;52.578;8.138;2022-10-31T00:20:37;68.07;;;35.30;;
20411;SDS011;10365;52.578;8.138;2022-10-31T00:23:03;65.95;;;33.78;;
20411;SDS011;10365;52.578;8.138;2022-10-31T00:25:32;67.75;;;34.15;;
20411;SDS011;10365;52.578;8.138;2022-10-31T00:27:58;62.85;;;34.58;;
20411;SDS011;10365;52.578;8.138;2022-10-31T00:30:23;70.63;;;36.53;;
20411;SDS011;10365;52.578;8.138;2022-10-31T00:32:48;82.30;;;37.38;;
20411;SDS011;10365;52.578;8.138;2022-10-31T00:35:14;78.72;;;37.83;;
20411;SDS011;10365;52.578;8.138;2022-10-31T00:37:41;77.80;;;37.05;;
20411;SDS011;10365;52.578;8.138;2022-10-31T00:40:06;72.25;;;38.20;;
20411;SDS011;10365;52.578;8.138;2022-10-31T00:42:32;73.97;;;37.45;;
20411;SDS011;10365;52.578;8.138;2022-10-31T00:44:57;74.30;;;36.65;;
20411;SDS011;10365;52.578;8.138;2022-10-31T00:47:23;70.95;;;36.60;;
20411;SDS011;10365;52.578;8.138;2022-10-31T00:49:49;69.90;;;35.28;;
20411;SDS011;10365;52.578;8.138;2022-10-31T00:52:14;69.30;;;36.97;;
20411;SDS011;10365;52.578;8.138;2022-10-31T00:54:41;74.47;;;38.47;;
20411;SDS011;10365;52.578;8.138;2022-10-31T00:57:06;81.03;;;37.17;;
20411;SDS011;10365;52.578;8.138;2022-10-31T00:59:32;79.78;;;38.83;;
20411;SDS011;10365;52.578;8.138;2022-10-31T01:01:57;81.00;;;37.70;;
20411;SDS011;10365;52.578;8.138;2022-10-31T01:04:23;80.07;;;37.45;;
20411;SDS011;10365;52.578;8.138;2022-10-31T01:06:48;77.40;;;38.47;;
20411;SDS011;10365;52.578;8.138;2022-10-31T01:09:15;90.97;;;40.55;;
20411;SDS011;10365;52.578;8.138;2022-10-31T01:11:41;83.90;;;39.45;;
20411;SDS011;10365;52.578;8.138;2022-10-31T01:14:08;91.43;;;40.30;;
20411;SDS011;10365;52.578;8.138;2022-10-31T01:16:33;90.05;;;41.03;;
20411;SDS011;10365;52.578;8.138;2022-10-31T01:18:59;89.43;;;40.40;;
20411;SDS011;10365;52.578;8.138;2022-10-31T01:21:26;79.78;;;37.25;;
20411;SDS011;10365;52.578;8.138;2022-10-31T01:23:56;81.38;;;39.97;;
20411;SDS011;10365;52.578;8.138;2022-10-31T01:26:25;73.30;;;37.80;;
20411;SDS011;10365;52.578;8.138;2022-10-31T01:28:56;74.80;;;36.75;;
20411;SDS011;10365;52.578;8.138;2022-10-31T01:31:23;78.10;;;37.55;;
20411;SDS011;10365;52.578;8.138;2022-10-31T01:33:49;75.55;;;36.80;;
20411;SDS011;10365;52.578;8.138;2022-10-31T01:38:40;76.45;;;39.53;;
20411;SDS011;10365;52.578;8.138;2022-10-31T01:41:06;79.93;;;39.63;;
20411;SDS011;10365;52.578;8.138;2022-10-31T01:43:41;86.03;;;40.03;;
20411;SDS011;10365;52.578;8.138;2022-10-31T01:46:07;81.43;;;39.33;;
20411;SDS011;10365;52.578;8.138;2022-10-31T01:48:33;88.13;;;41.47;;
20411;SDS011;10365;52.578;8.138;2022-10-31T01:50:59;93.38;;;43.40;;
20411;SDS011;10365;52.578;8.138;2022-10-31T01:53:25;94.05;;;43.20;;
20411;SDS011;10365;52.578;8.138;2022-10-31T01:55:50;89.28;;;43.60;;
20411;SDS011;10365;52.578;8.138;2022-10-31T01:58:18;97.25;;;42.53;;
20411;SDS011;10365;52.578;8.138;2022-10-31T02:00:46;87.55;;;41.70;;
20411;SDS011;10365;52.578;8.138;2022-10-31T02:03:13;83.43;;;41.13;;
20411;SDS011;10365;52.578;8.138;2022-10-31T02:05:39;87.35;;;40.95;;
20411;SDS011;10365;52.578;8.138;2022-10-31T02:08:13;84.68;;;39.47;;
20411;SDS011;10365;52.578;8.138;2022-10-31T02:10:41;83.55;;;38.88;;
20411;SDS011;10365;52.578;8.138;2022-10-31T02:13:07;86.18;;;40.88;;
20411;SDS011;10365;52.578;8.138;2022-10-31T02:15:40;84.50;;;41.25;;
20411;SDS011;10365;52.578;8.138;2022-10-31T02:18:05;86.45;;;42.75;;
20411;SDS011;10365;52.578;8.138;2022-10-31T02:20:38;94.13;;;43.08;;
20411;SDS011;10365;52.578;8.138;2022-10-31T02:25:53;91.88;;;41.97;;
20411;SDS011;10365;52.578;8.138;2022-10-31T02:28:43;82.68;;;41.22;;
20411;SDS011;10365;52.578;8.138;2022-10-31T02:31:18;84.30;;;40.25;;
20411;SDS011;10365;52.578;8.138;2022-10-31T02:41:46;87.20;;;40.50;;
20411;SDS011;10365;52.578;8.138;2022-10-31T02:44:16;83.60;;;42.53;;
20411;SDS011;10365;52.578;8.138;2022-10-31T02:49:21;82.82;;;40.95;;
20411;SDS011;10365;52.578;8.138;2022-10-31T02:51:48;86.25;;;40.63;;
20411;SDS011;10365;52.578;8.138;2022-10-31T02:54:18;88.95;;;39.83;;
20411;SDS011;10365;52.578;8.138;2022-10-31T02:56:44;81.43;;;41.05;;
20411;SDS011;10365;52.578;8.138;2022-10-31T02:59:09;94.13;;;43.17;;
20411;SDS011;10365;52.578;8.138;2022-10-31T03:01:46;105.93;;;45.05;;
20411;SDS011;10365;52.578;8.138;2022-10-31T03:04:22;93.97;;;43.42;;
20411;SDS011;10365;52.578;8.138;2022-10-31T03:11:46;91.22;;;41.72;;
20411;SDS011;10365;52.578;8.138;2022-10-31T03:14:19;83.63;;;40.30;;
20411;SDS011;10365;52.578;8.138;2022-10-31T03:16:49;92.05;;;42.00;;
20411;SDS011;10365;52.578;8.138;2022-10-31T03:19:23;89.80;;;42.55;;
20411;SDS011;10365;52.578;8.138;2022-10-31T03:21:59;89.93;;;42.63;;
20411;SDS011;10365;52.578;8.138;2022-10-31T03:24:27;91.28;;;41.33;;
20411;SDS011;10365;52.578;8.138;2022-10-31T03:26:56;85.07;;;41.72;;
20411;SDS011;10365;52.578;8.138;2022-10-31T03:29:23;95.53;;;42.15;;
20411;SDS011;10365;52.578;8.138;2022-10-31T03:34:16;101.93;;;44.60;;
20411;SDS011;10365;52.578;8.138;2022-10-31T03:36:43;100.22;;;45.17;;
20411;SDS011;10365;52.578;8.138;2022-10-31T03:39:11;107.15;;;46.05;;
20411;SDS011;10365;52.578;8.138;2022-10-31T03:41:40;103.72;;;45.35;;
20411;SDS011;10365;52.578;8.138;2022-10-31T03:44:08;100.07;;;43.28;;
20411;SDS011;10365;52.578;8.138;2022-10-31T03:46:37;106.93;;;44.03;;
20411;SDS011;10365;52.578;8.138;2022-10-31T03:49:03;98.13;;;45.05;;
20411;SDS011;10365;52.578;8.138;2022-10-31T03:51:37;96.38;;;43.33;;
20411;SDS011;10365;52.578;8.138;2022-10-31T03:59:00;103.88;;;43.58;;
20411;SDS011;10365;52.578;8.138;2022-10-31T04:01:28;118.57;;;46.20;;
20411;SDS011;10365;52.578;8.138;2022-10-31T04:03:55;102.82;;;44.78;;
20411;SDS011;10365;52.578;8.138;2022-10-31T04:06:21;115.05;;;48.30;;
20411;SDS011;10365;52.578;8.138;2022-10-31T04:08:49;121.03;;;49.47;;
20411;SDS011;10365;52.578;8.138;2022-10-31T04:11:17;104.85;;;44.97;;
20411;SDS011;10365;52.578;8.138;2022-10-31T04:13:51;101.53;;;44.28;;
20411;SDS011;10365;52.578;8.138;2022-10-31T04:16:21;100.90;;;43.47;;
20411;SDS011;10365;52.578;8.138;2022-10-31T04:18:46;90.85;;;40.45;;
20411;SDS011;10365;52.578;8.138;2022-10-31T04:21:12;93.53;;;41.85;;
20411;SDS011;10365;52.578;8.138;2022-10-31T04:23:37;83.32;;;38.55;;
20411;SDS011;10365;52.578;8.138;2022-10-31T04:26:13;85.10;;;40.97;;
20411;SDS011;10365;52.578;8.138;2022-10-31T04:28:38;83.78;;;38.22;;
20411;SDS011;10365;52.578;8.138;2022-10-31T04:31:04;92.45;;;38.88;;
20411;SDS011;10365;52.578;8.138;2022-10-31T04:33:31;104.78;;;42.45;;
20411;SDS011;10365;52.578;8.138;2022-10-31T04:35:57;98.78;;;41.55;;
20411;SDS011;10365;52.578;8.138;2022-10-31T04:38:23;91.53;;;40.10;;
20411;SDS011;10365;52.578;8.138;2022-10-31T04:40:49;87.13;;;38.15;;
20411;SDS011;10365;52.578;8.138;2022-10-31T04:43:20;88.75;;;39.70;;
20411;SDS011;10365;52.578;8.138;2022-10-31T04:45:45;107.63;;;41.95;;
20411;SDS011;10365;52.578;8.138;2022-10-31T04:48:12;95.22;;;39.95;;
20411;SDS011;10365;52.578;8.138;2022-10-31T04:50:41;91.80;;;39.35;;
20411;SDS011;10365;52.578;8.138;2022-10-31T04:53:06;96.97;;;39.60;;
20411;SDS011;10365;52.578;8.138;2022-10-31T04:55:39;87.38;;;38.17;;
20411;SDS011;10365;52.578;8.138;2022-10-31T04:58:21;85.63;;;37.92;;
20411;SDS011;10365;52.578;8.138;2022-10-31T05:00:51;90.28;;;39.75;;
20411;SDS011;10365;52.578;8.138;2022-10-31T05:03:16;92.85;;;39.80;;
20411;SDS011;10365;52.578;8.138;2022-10-31T05:05:41;99.28;;;41.67;;
20411;SDS011;10365;52.578;8.138;2022-10-31T05:08:07;95.30;;;41.67;;
20411;SDS011;10365;52.578;8.138;2022-10-31T05:10:32;103.72;;;41.97;;
20411;SDS011;10365;52.578;8.138;2022-10-31T05:13:00;103.90;;;42.85;;
20411;SDS011;10365;52.578;8.138;2022-10-31T05:15:58;103.07;;;42.30;;
20411;SDS011;10365;52.578;8.138;2022-10-31T05:18:43;97.45;;;41.90;;
20411;SDS011;10365;52.578;8.138;2022-10-31T05:21:32;111.30;;;42.67;;
20411;SDS011;10365;52.578;8.138;2022-10-31T05:24:00;114.15;;;44.15;;
20411;SDS011;10365;52.578;8.138;2022-10-31T05:26:27;107.85;;;44.70;;
20411;SDS011;10365;52.578;8.138;2022-10-31T05:28:53;101.80;;;42.20;;
20411;SDS011;10365;52.578;8.138;2022-10-31T05:31:19;99.70;;;41.90;;
20411;SDS011;10365;52.578;8.138;2022-10-31T05:33:44;107.68;;;41.03;;
20411;SDS011;10365;52.578;8.138;2022-10-31T05:36:39;99.05;;;40.33;;
20411;SDS011;10365;52.578;8.138;2022-10-31T05:39:20;100.47;;;40.80;;
20411;SDS011;10365;52.578;8.138;2022-10-31T05:41:48;94.28;;;39.67;;
20411;SDS011;10365;52.578;8.138;2022-10-31T05:44:18;87.10;;;37.88;;
20411;SDS011;10365;52.578;8.138;2022-10-31T05:47:07;77.10;;;33.30;;
20411;SDS011;10365;52.578;8.138;2022-10-31T05:49:32;73.57;;;32.13;;
20411;SDS011;10365;52.578;8.138;2022-10-31T05:52:07;71.60;;;32.78;;
20411;SDS011;10365;52.578;8.138;2022-10-31T05:54:39;64.57;;;30.05;;
20411;SDS011;10365;52.578;8.138;2022-10-31T05:57:04;72.13;;;32.72;;
20411;SDS011;10365;52.578;8.138;2022-10-31T05:59:30;78.45;;;34.10;;
20411;SDS011;10365;52.578;8.138;2022-10-31T06:01:57;82.95;;;36.10;;
20411;SDS011;10365;52.578;8.138;2022-10-31T06:04:33;78.15;;;34.65;;
20411;SDS011;10365;52.578;8.138;2022-10-31T06:06:59;84.10;;;35.53;;
20411;SDS011;10365;52.578;8.138;2022-10-31T06:09:24;91.53;;;36.97;;
20411;SDS011;10365;52.578;8.138;2022-10-31T06:11:50;74.53;;;34.08;;
20411;SDS011;10365;52.578;8.138;2022-10-31T06:14:24;69.55;;;31.10;;
20411;SDS011;10365;52.578;8.138;2022-10-31T06:16:53;69.40;;;32.30;;
20411;SDS011;10365;52.578;8.138;2022-10-31T06:19:54;76.25;;;32.88;;
20411;SDS011;10365;52.578;8.138;2022-10-31T06:22:23;72.10;;;33.20;;
20411;SDS011;10365;52.578;8.138;2022-10-31T06:24:48;71.68;;;32.10;;
20411;SDS011;10365;52.578;8.138;2022-10-31T06:27:35;76.75;;;32.50;;
20411;SDS011;10365;52.578;8.138;2022-10-31T06:30:09;82.70;;;34.63;;
20411;SDS011;10365;52.578;8.138;2022-10-31T06:32:36;78.78;;;34.42;;
20411;SDS011;10365;52.578;8.138;2022-10-31T06:35:01;76.05;;;33.85;;
20411;SDS011;10365;52.578;8.138;2022-10-31T06:37:27;74.90;;;33.03;;
20411;SDS011;10365;52.578;8.138;2022-10-31T06:39:59;70.60;;;31.38;;
20411;SDS011;10365;52.578;8.138;2022-10-31T06:42:24;69.22;;;31.52;;
20411;SDS011;10365;52.578;8.138;2022-10-31T06:44:50;78.95;;;33.13;;
20411;SDS011;10365;52.578;8.138;2022-10-31T06:47:49;69.35;;;31.60;;
20411;SDS011;10365;52.578;8.138;2022-10-31T06:50:21;71.18;;;30.08;;
20411;SDS011;10365;52.578;8.138;2022-10-31T06:52:51;82.38;;;33.70;;
20411;SDS011;10365;52.578;8.138;2022-10-31T06:55:16;70.78;;;29.75;;
20411;SDS011;10365;52.578;8.138;2022-10-31T06:57:48;69.03;;;29.27;;
20411;SDS011;10365;52.578;8.138;2022-10-31T07:00:14;67.53;;;28.83;;
20411;SDS011;10365;52.578;8.138;2022-10-31T07:02:59;72.90;;;29.48;;
20411;SDS011;10365;52.578;8.138;2022-10-31T07:05:25;66.88;;;29.30;;
20411;SDS011;10365;52.578;8.138;2022-10-31T07:07:52;80.00;;;31.83;;
20411;SDS011;10365;52.578;8.138;2022-10-31T07:10:18;82.82;;;32.45;;
20411;SDS011;10365;52.578;8.138;2022-10-31T07:12:59;74.75;;;30.80;;
20411;SDS011;10365;52.578;8.138;2022-10-31T07:15:25;66.60;;;30.38;;
20411;SDS011;10365;52.578;8.138;2022-10-31T07:17:51;72.95;;;30.15;;
20411;SDS011;10365;52.578;8.138;2022-10-31T07:20:17;76.20;;;31.30;;
20411;SDS011;10365;52.578;8.138;2022-10-31T07:22:43;71.93;;;30.35;;
20411;SDS011;10365;52.578;8.138;2022-10-31T07:25:09;64.45;;;30.67;;
20411;SDS011;10365;52.578;8.138;2022-10-31T07:27:55;78.07;;;31.10;;
20411;SDS011;10365;52.578;8.138;2022-10-31T07:30:20;62.38;;;29.88;;
20411;SDS011;10365;52.578;8.138;2022-10-31T07:32:49;69.63;;;32.70;;
20411;SDS011;10365;52.578;8.138;2022-10-31T07:35:18;64.28;;;30.23;;
20411;SDS011;10365;52.578;8.138;2022-10-31T07:37:46;72.38;;;32.40;;
20411;SDS011;10365;52.578;8.138;2022-10-31T07:40:13;78.22;;;33.35;;
20411;SDS011;10365;52.578;8.138;2022-10-31T07:42:39;85.10;;;35.13;;
20411;SDS011;10365;52.578;8.138;2022-10-31T07:45:12;85.97;;;33.63;;
20411;SDS011;10365;52.578;8.138;2022-10-31T07:48:10;83.40;;;34.50;;
20411;SDS011;10365;52.578;8.138;2022-10-31T07:51:07;90.32;;;36.03;;
20411;SDS011;10365;52.578;8.138;2022-10-31T07:53:56;87.03;;;35.03;;
20411;SDS011;10365;52.578;8.138;2022-10-31T07:56:24;74.05;;;34.35;;
20411;SDS011;10365;52.578;8.138;2022-10-31T07:58:49;66.65;;;31.98;;
20411;SDS011;10365;52.578;8.138;2022-10-31T08:01:14;86.18;;;34.15;;
20411;SDS011;10365;52.578;8.138;2022-10-31T08:03:48;77.90;;;34.38;;
20411;SDS011;10365;52.578;8.138;2022-10-31T08:06:32;77.65;;;34.15;;
20411;SDS011;10365;52.578;8.138;2022-10-31T08:09:24;85.50;;;35.72;;
20411;SDS011;10365;52.578;8.138;2022-10-31T08:11:52;76.15;;;34.42;;
20411;SDS011;10365;52.578;8.138;2022-10-31T08:14:17;75.57;;;34.90;;
20411;SDS011;10365;52.578;8.138;2022-10-31T08:16:43;78.32;;;36.17;;
20411;SDS011;10365;52.578;8.138;2022-10-31T08:19:09;75.15;;;33.10;;
20411;SDS011;10365;52.578;8.138;2022-10-31T08:21:37;70.60;;;32.15;;
20411;SDS011;10365;52.578;8.138;2022-10-31T08:24:04;75.63;;;33.13;;
20411;SDS011;10365;52.578;8.138;2022-10-31T08:26:31;80.03;;;32.83;;
20411;SDS011;10365;52.578;8.138;2022-10-31T08:28:58;67.95;;;32.30;;
20411;SDS011;10365;52.578;8.138;2022-10-31T08:31:28;64.88;;;30.63;;
20411;SDS011;10365;52.578;8.138;2022-10-31T08:34:12;66.82;;;31.60;;
20411;SDS011;10365;52.578;8.138;2022-10-31T08:36:40;62.88;;;29.77;;
20411;SDS011;10365;52.578;8.138;2022-10-31T08:39:19;69.85;;;31.65;;
20411;SDS011;10365;52.578;8.138;2022-10-31T08:41:45;58.33;;;28.00;;
20411;SDS011;10365;52.578;8.138;2022-10-31T08:44:11;64.00;;;31.02;;
20411;SDS011;10365;52.578;8.138;2022-10-31T08:46:37;60.40;;;28.92;;
20411;SDS011;10365;52.578;8.138;2022-10-31T08:49:03;63.47;;;30.88;;
20411;SDS011;10365;52.578;8.138;2022-10-31T08:51:28;66.45;;;32.05;;
20411;SDS011;10365;52.578;8.138;2022-10-31T08:53:55;53.80;;;27.65;;
20411;SDS011;10365;52.578;8.138;2022-10-31T08:56:32;51.90;;;26.00;;
20411;SDS011;10365;52.578;8.138;2022-10-31T08:58:59;56.40;;;27.55;;
20411;SDS011;10365;52.578;8.138;2022-10-31T09:01:42;66.80;;;29.77;;
20411;SDS011;10365;52.578;8.138;2022-10-31T09:04:08;62.40;;;30.08;;
20411;SDS011;10365;52.578;8.138;2022-10-31T09:06:34;61.92;;;29.15;;
20411;SDS011;10365;52.578;8.138;2022-10-31T09:09:00;59.38;;;29.35;;
20411;SDS011;10365;52.578;8.138;2022-10-31T09:11:25;57.78;;;27.75;;
20411;SDS011;10365;52.578;8.138;2022-10-31T09:14:23;61.40;;;27.63;;
20411;SDS011;10365;52.578;8.138;2022-10-31T09:17:11;56.17;;;26.23;;
20411;SDS011;10365;52.578;8.138;2022-10-31T09:20:06;44.65;;;24.35;;
20411;SDS011;10365;52.578;8.138;2022-10-31T09:22:33;44.72;;;23.55;;
20411;SDS011;10365;52.578;8.138;2022-10-31T09:24:59;38.60;;;23.15;;
20411;SDS011;10365;52.578;8.138;2022-10-31T09:27:24;37.97;;;22.58;;
20411;SDS011;10365;52.578;8.138;2022-10-31T09:29:52;38.88;;;21.58;;
20411;SDS011;10365;52.578;8.138;2022-10-31T09:32:18;37.55;;;22.75;;
20411;SDS011;10365;52.578;8.138;2022-10-31T09:34:45;37.50;;;21.48;;
20411;SDS011;10365;52.578;8.138;2022-10-31T09:37:14;36.90;;;21.65;;
20411;SDS011;10365;52.578;8.138;2022-10-31T09:39:39;32.58;;;19.15;;
20411;SDS011;10365;52.578;8.138;2022-10-31T09:47:47;34.35;;;20.52;;
20411;SDS011;10365;52.578;8.138;2022-10-31T09:50:46;29.63;;;18.60;;
20411;SDS011;10365;52.578;8.138;2022-10-31T09:53:50;30.30;;;19.75;;
20411;SDS011;10365;52.578;8.138;2022-10-31T09:56:21;31.38;;;20.60;;
20411;SDS011;10365;52.578;8.138;2022-10-31T09:58:50;27.48;;;18.50;;
20411;SDS011;10365;52.578;8.138;2022-10-31T10:01:25;33.08;;;19.23;;
20411;SDS011;10365;52.578;8.138;2022-10-31T10:03:54;30.63;;;19.30;;
20411;SDS011;10365;52.578;8.138;2022-10-31T10:06:41;25.98;;;17.52;;
20411;SDS011;10365;52.578;8.138;2022-10-31T10:09:42;29.92;;;17.27;;
20411;SDS011;10365;52.578;8.138;2022-10-31T10:12:38;31.27;;;16.95;;
20411;SDS011;10365;52.578;8.138;2022-10-31T10:17:55;27.58;;;16.38;;
20411;SDS011;10365;52.578;8.138;2022-10-31T10:25:23;20.60;;;14.13;;
20411;SDS011;10365;52.578;8.138;2022-10-31T10:28:02;26.80;;;15.63;;
20411;SDS011;10365;52.578;8.138;2022-10-31T10:30:35;24.20;;;14.63;;
20411;SDS011;10365;52.578;8.138;2022-10-31T10:33:07;25.30;;;15.38;;
20411;SDS011;10365;52.578;8.138;2022-10-31T10:35:34;20.75;;;14.48;;
20411;SDS011;10365;52.578;8.138;2022-10-31T10:38:10;24.52;;;14.82;;
20411;SDS011;10365;52.578;8.138;2022-10-31T10:40:37;23.13;;;14.40;;
20411;SDS011;10365;52.578;8.138;2022-10-31T10:45:56;23.25;;;14.90;;
20411;SDS011;10365;52.578;8.138;2022-10-31T10:48:43;27.80;;;15.07;;
20411;SDS011;10365;52.578;8.138;2022-10-31T10:51:19;24.20;;;14.85;;
20411;SDS011;10365;52.578;8.138;2022-10-31T10:53:58;28.10;;;16.30;;
20411;SDS011;10365;52.578;8.138;2022-10-31T10:58:53;25.75;;;16.02;;
20411;SDS011;10365;52.578;8.138;2022-10-31T11:01:21;27.23;;;15.95;;
20411;SDS011;10365;52.578;8.138;2022-10-31T11:03:47;24.38;;;16.25;;
20411;SDS011;10365;52.578;8.138;2022-10-31T11:06:16;28.17;;;16.58;;
20411;SDS011;10365;52.578;8.138;2022-10-31T11:08:42;24.25;;;15.52;;
20411;SDS011;10365;52.578;8.138;2022-10-31T11:11:15;24.65;;;15.35;;
20411;SDS011;10365;52.578;8.138;2022-10-31T11:13:44;22.40;;;13.98;;
20411;SDS011;10365;52.578;8.138;2022-10-31T11:16:12;24.75;;;13.95;;
20411;SDS011;10365;52.578;8.138;2022-10-31T11:18:42;21.73;;;12.43;;
20411;SDS011;10365;52.578;8.138;2022-10-31T11:21:19;24.17;;;12.45;;
20411;SDS011;10365;52.578;8.138;2022-10-31T11:23:45;19.92;;;11.63;;
20411;SDS011;10365;52.578;8.138;2022-10-31T11:26:18;17.92;;;10.75;;
20411;SDS011;10365;52.578;8.138;2022-10-31T11:28:43;17.17;;;10.40;;
20411;SDS011;10365;52.578;8.138;2022-10-31T11:31:11;19.48;;;12.65;;
20411;SDS011;10365;52.578;8.138;2022-10-31T11:33:38;22.23;;;12.80;;
20411;SDS011;10365;52.578;8.138;2022-10-31T11:36:15;22.48;;;13.77;;
20411;SDS011;10365;52.578;8.138;2022-10-31T11:38:42;20.20;;;13.02;;
20411;SDS011;10365;52.578;8.138;2022-10-31T11:43:33;19.75;;;14.05;;
20411;SDS011;10365;52.578;8.138;2022-10-31T11:46:07;26.52;;;15.82;;
20411;SDS011;10365;52.578;8.138;2022-10-31T11:48:33;25.08;;;16.52;;
20411;SDS011;10365;52.578;8.138;2022-10-31T11:50:58;23.77;;;16.33;;
20411;SDS011;10365;52.578;8.138;2022-10-31T11:53:28;26.60;;;16.65;;
20411;SDS011;10365;52.578;8.138;2022-10-31T11:58:29;25.88;;;16.63;;
20411;SDS011;10365;52.578;8.138;2022-10-31T12:00:55;28.85;;;16.65;;
20411;SDS011;10365;52.578;8.138;2022-10-31T12:05:46;27.92;;;16.88;;
20411;SDS011;10365;52.578;8.138;2022-10-31T12:08:12;24.67;;;15.75;;
20411;SDS011;10365;52.578;8.138;2022-10-31T12:15:36;27.30;;;16.08;;
20411;SDS011;10365;52.578;8.138;2022-10-31T12:25:51;33.58;;;17.50;;
20411;SDS011;10365;52.578;8.138;2022-10-31T12:46:09;31.60;;;17.40;;
20411;SDS011;10365;52.578;8.138;2022-10-31T12:51:18;35.08;;;18.60;;
20411;SDS011;10365;52.578;8.138;2022-10-31T13:02:16;31.17;;;17.75;;
20411;SDS011;10365;52.578;8.138;2022-10-31T13:07:20;35.53;;;19.48;;
20411;SDS011;10365;52.578;8.138;2022-10-31T13:09:58;32.38;;;19.25;;
20411;SDS011;10365;52.578;8.138;2022-10-31T13:12:25;38.13;;;19.15;;
20411;SDS011;10365;52.578;8.138;2022-10-31T13:14:53;32.78;;;18.90;;
20411;SDS011;10365;52.578;8.138;2022-10-31T13:17:39;35.70;;;19.67;;
20411;SDS011;10365;52.578;8.138;2022-10-31T13:23:03;38.42;;;18.13;;
20411;SDS011;10365;52.578;8.138;2022-10-31T13:25:30;30.88;;;17.17;;
20411;SDS011;10365;52.578;8.138;2022-10-31T13:27:58;34.83;;;17.67;;
20411;SDS011;10365;52.578;8.138;2022-10-31T13:30:25;32.60;;;17.33;;
20411;SDS011;10365;52.578;8.138;2022-10-31T13:35:31;34.55;;;17.10;;
20411;SDS011;10365;52.578;8.138;2022-10-31T13:40:48;33.08;;;16.85;;
20411;SDS011;10365;52.578;8.138;2022-10-31T13:43:18;31.48;;;16.83;;
20411;SDS011;10365;52.578;8.138;2022-10-31T13:45:48;28.65;;;16.45;;
20411;SDS011;10365;52.578;8.138;2022-10-31T13:50:40;33.90;;;17.92;;
20411;SDS011;10365;52.578;8.138;2022-10-31T13:53:10;31.70;;;18.40;;
20411;SDS011;10365;52.578;8.138;2022-10-31T13:55:43;30.73;;;17.05;;
20411;SDS011;10365;52.578;8.138;2022-10-31T13:58:25;32.67;;;18.23;;
20411;SDS011;10365;52.578;8.138;2022-10-31T14:01:24;39.55;;;18.10;;
20411;SDS011;10365;52.578;8.138;2022-10-31T14:03:43;27.17;;;16.30;;
20411;SDS011;10365;52.578;8.138;2022-10-31T14:06:09;32.05;;;17.95;;
20411;SDS011;10365;52.578;8.138;2022-10-31T14:08:36;42.55;;;19.65;;
20411;SDS011;10365;52.578;8.138;2022-10-31T14:11:03;34.90;;;18.48;;
20411;SDS011;10365;52.578;8.138;2022-10-31T14:13:32;38.50;;;21.50;;
20411;SDS011;10365;52.578;8.138;2022-10-31T14:16:03;37.63;;;19.67;;
20411;SDS011;10365;52.578;8.138;2022-10-31T14:20:55;34.80;;;19.63;;
20411;SDS011;10365;52.578;8.138;2022-10-31T14:25:52;38.17;;;20.88;;
20411;SDS011;10365;52.578;8.138;2022-10-31T14:28:18;42.83;;;21.48;;
20411;SDS011;10365;52.578;8.138;2022-10-31T14:30:54;39.42;;;21.27;;
20411;SDS011;10365;52.578;8.138;2022-10-31T14:33:20;38.30;;;20.13;;
20411;SDS011;10365;52.578;8.138;2022-10-31T14:35:51;39.05;;;21.33;;
20411;SDS011;10365;52.578;8.138;2022-10-31T14:39:02;37.85;;;20.58;;
20411;SDS011;10365;52.578;8.138;2022-10-31T14:41:17;39.00;;;21.30;;
20411;SDS011;10365;52.578;8.138;2022-10-31T14:51:46;27.75;;;17.05;;
20411;SDS011;10365;52.578;8.138;2022-10-31T14:54:13;29.00;;;17.30;;
20411;SDS011;10365;52.578;8.138;2022-10-31T14:56:42;30.38;;;17.38;;
20411;SDS011;10365;52.578;8.138;2022-10-31T14:59:14;36.35;;;18.38;;
20411;SDS011;10365;52.578;8.138;2022-10-31T15:01:53;29.75;;;17.13;;
20411;SDS011;10365;52.578;8.138;2022-10-31T15:04:20;37.88;;;18.10;;
20411;SDS011;10365;52.578;8.138;2022-10-31T15:06:48;36.85;;;17.52;;
20411;SDS011;10365;52.578;8.138;2022-10-31T15:09:24;39.03;;;17.75;;
20411;SDS011;10365;52.578;8.138;2022-10-31T15:11:50;40.03;;;17.88;;
20411;SDS011;10365;52.578;8.138;2022-10-31T15:14:21;36.50;;;17.85;;
20411;SDS011;10365;52.578;8.138;2022-10-31T15:16:47;33.67;;;19.95;;
20411;SDS011;10365;52.578;8.138;2022-10-31T15:19:16;42.15;;;18.85;;
20411;SDS011;10365;52.578;8.138;2022-10-31T15:21:44;38.13;;;19.33;;
20411;SDS011;10365;52.578;8.138;2022-10-31T15:24:13;41.58;;;18.80;;
20411;SDS011;10365;52.578;8.138;2022-10-31T15:26:43;28.63;;;18.08;;
20411;SDS011;10365;52.578;8.138;2022-10-31T15:29:22;34.85;;;17.88;;
20411;SDS011;10365;52.578;8.138;2022-10-31T15:31:52;39.13;;;18.40;;
20411;SDS011;10365;52.578;8.138;2022-10-31T15:34:21;33.97;;;19.40;;
20411;SDS011;10365;52.578;8.138;2022-10-31T15:36:48;31.00;;;16.92;;
20411;SDS011;10365;52.578;8.138;2022-10-31T15:39:14;36.50;;;17.73;;
20411;SDS011;10365;52.578;8.138;2022-10-31T15:44:13;36.67;;;18.55;;
20411;SDS011;10365;52.578;8.138;2022-10-31T15:46:39;31.83;;;17.52;;
20411;SDS011;10365;52.578;8.138;2022-10-31T15:49:10;30.95;;;17.52;;
20411;SDS011;10365;52.578;8.138;2022-10-31T15:51:37;35.75;;;17.83;;
20411;SDS011;10365;52.578;8.138;2022-10-31T15:54:02;35.17;;;17.27;;
20411;SDS011;10365;52.578;8.138;2022-10-31T15:56:29;34.95;;;16.73;;
20411;SDS011;10365;52.578;8.138;2022-10-31T15:58:55;41.85;;;18.45;;
20411;SDS011;10365;52.578;8.138;2022-10-31T16:01:22;37.60;;;17.77;;
20411;SDS011;10365;52.578;8.138;2022-10-31T16:03:57;31.55;;;18.27;;
20411;SDS011;10365;52.578;8.138;2022-10-31T16:06:23;35.45;;;17.40;;
20411;SDS011;10365;52.578;8.138;2022-10-31T16:08:48;34.33;;;17.77;;
20411;SDS011;10365;52.578;8.138;2022-10-31T16:13:53;41.30;;;18.60;;
20411;SDS011;10365;52.578;8.138;2022-10-31T16:16:19;33.22;;;17.92;;
20411;SDS011;10365;52.578;8.138;2022-10-31T16:18:48;39.38;;;18.17;;
20411;SDS011;10365;52.578;8.138;2022-10-31T16:21:13;37.92;;;18.83;;
20411;SDS011;10365;52.578;8.138;2022-10-31T16:23:43;40.13;;;20.25;;
20411;SDS011;10365;52.578;8.138;2022-10-31T16:26:09;39.03;;;17.17;;
20411;SDS011;10365;52.578;8.138;2022-10-31T16:28:35;38.75;;;17.88;;
20411;SDS011;10365;52.578;8.138;2022-10-31T16:31:01;33.63;;;18.80;;
20411;SDS011;10365;52.578;8.138;2022-10-31T16:33:37;34.63;;;17.85;;
20411;SDS011;10365;52.578;8.138;2022-10-31T16:38:47;29.20;;;15.55;;
20411;SDS011;10365;52.578;8.138;2022-10-31T16:41:12;40.22;;;17.58;;
20411;SDS011;10365;52.578;8.138;2022-10-31T16:43:37;33.13;;;17.08;;
20411;SDS011;10365;52.578;8.138;2022-10-31T16:46:03;35.50;;;16.75;;
20411;SDS011;10365;52.578;8.138;2022-10-31T16:48:28;30.25;;;15.88;;